Airfield :
LOGIN :

Register | Disclaimer

   EN    FR    IT 

 










Legend :    VFR   Marginal VFR   IFR   Intensive IFR   Very Intensive IFR
Visi :
Ceiling :
>= 8 km
>= 3000ft
5 to 8 km
1000 to 3000 ft
1500m to 5 km
500 to 1000 ft
800 to 1500m
200 to 500 ft
< 800m
< 200 ft
Symbols :   Thunderstorms  Fog  Heavy snow  Heavy precipitations  Wind > 20 kt
SIGMETs :     Misc.  Thunderstorms  Icing  Turbulence  Mountain Waves  Volcanic Ashes






- Airport Elevation : 157 ft
- IATA code : LIL


LFQQ - Lille Lesquin

CURRENT METAR :
  • 261130Z AUTO 23005KT 7000 OVC014 03/01 Q1034 BECMG BKN017

EXPIRED METARs :
  • 261100Z AUTO 27007KT 230V310 5000 BR OVC011 02/01 Q1034 BECMG BKN017
  • 261030Z AUTO 27005KT 5000 BR OVC011 02/01 Q1034 BECMG BKN017
  • 261000Z AUTO 29006KT 250V310 4700 BR OVC010 02/01 Q1034 BECMG 7000 NSW BKN017
  • 260930Z AUTO 28008KT 5000 BR OVC011 02/01 Q1034 BECMG BKN017

TAF TAF LFQQ
Valid from the 26 at 12:00 until the 27 at 18:00 UTC


261100Z 2612/2718 26005KT 5000 BR OVC012
BECMG 2612/2615 8000 NSW OVC017
BECMG 2618/2621 20010KT
TEMPO 2701/2707 4000 BR BKN003
BECMG 2707/2709 BKN007 OVC015
TEMPO 2709/2715 26016KT 3000 RADZ OVC004
BECMG 2715/2717 30010KT NSC
ATIS : +33 3 20 16 19 54



MET'MAP, your aeronautical weather chart ! - Copyright ORBIFLY December 2007 - Disclaimer

ORBIFLY MET'MAP TEAM :

Programming & Development : Alexandra Zaïnal
Original concept : Baudouin d'Aumeries
Technical & hardware support : Manuel Goepfert
Assistance : Marc-Olivier Méhu

Contact : metmap@orbifly.com




SOURCES & CREDITS :

   NOAA